LOT7TF EPWA-EPLB
Flight info
| Callsign | LOT7TF |
|---|---|
| Flight time | 0h 29m |
| Altitude | 17000 |
| Route | XIMBA M860 EGLON/N0370F160 M857 VENES |
| Aircraft | E195/M-SDE3GILORVW/S |
Departure
| Time | 2026-05-06 09:32 |
|---|---|
| Airport | Warsaw Chopin Airport (EPWA) |
Arrival
| Time | 2026-05-06 10:02 |
|---|---|
| Airport | Lublin Airport (EPLB) |
| Time | Latitude | Longitude | Altitude | Speed | Heading |
|---|---|---|---|---|---|
| 2026-05-06 09:22 | 52.17000 | 20.97146 | 356 ft | 0 kts | 69° |
| 2026-05-06 09:25 | 52.16992 | 20.97111 | 359 ft | 4 kts | 69° |
| 2026-05-06 09:25 | 52.16982 | 20.97070 | 356 ft | 4 kts | 69° |
| 2026-05-06 09:25 | 52.16974 | 20.97037 | 359 ft | 4 kts | 50° |
| 2026-05-06 09:25 | 52.16955 | 20.97020 | 356 ft | 4 kts | 346° |
| 2026-05-06 09:26 | 52.16930 | 20.97036 | 355 ft | 3 kts | 332° |
| 2026-05-06 09:26 | 52.16928 | 20.97038 | 354 ft | 0 kts | 332° |
| 2026-05-06 09:28 | 52.16931 | 20.97036 | 355 ft | 2 kts | 332° |
| 2026-05-06 09:28 | 52.16963 | 20.97007 | 355 ft | 9 kts | 332° |
| 2026-05-06 09:29 | 52.17027 | 20.96952 | 348 ft | 11 kts | 332° |
| 2026-05-06 09:29 | 52.17100 | 20.96889 | 352 ft | 12 kts | 332° |
| 2026-05-06 09:29 | 52.17162 | 20.96808 | 352 ft | 11 kts | 282° |
| 2026-05-06 09:29 | 52.17133 | 20.96698 | 355 ft | 10 kts | 252° |
| 2026-05-06 09:30 | 52.17158 | 20.96596 | 353 ft | 12 kts | 323° |
| 2026-05-06 09:30 | 52.17242 | 20.96526 | 348 ft | 14 kts | 333° |
| 2026-05-06 09:30 | 52.17330 | 20.96451 | 351 ft | 15 kts | 332° |
| 2026-05-06 09:30 | 52.17423 | 20.96367 | 350 ft | 16 kts | 332° |
| 2026-05-06 09:31 | 52.17524 | 20.96279 | 352 ft | 17 kts | 332° |
| 2026-05-06 09:31 | 52.17580 | 20.96185 | 348 ft | 10 kts | 282° |
| 2026-05-06 09:31 | 52.17557 | 20.96077 | 350 ft | 12 kts | 218° |
| 2026-05-06 09:31 | 52.17471 | 20.96008 | 338 ft | 17 kts | 205° |
| 2026-05-06 09:32 | 52.17327 | 20.96048 | 340 ft | 39 kts | 152° |
| 2026-05-06 09:32 | 52.16873 | 20.96448 | 350 ft | 108 kts | 152° |
| 2026-05-06 09:32 | 52.16043 | 20.97181 | 515 ft | 150 kts | 154° |
| 2026-05-06 09:32 | 52.15115 | 20.97948 | 1375 ft | 156 kts | 157° |
| 2026-05-06 09:33 | 52.14110 | 20.98861 | 1851 ft | 178 kts | 155° |
| 2026-05-06 09:33 | 52.12987 | 20.99895 | 2441 ft | 188 kts | 152° |
| 2026-05-06 09:33 | 52.11785 | 21.00617 | 3318 ft | 179 kts | 167° |
| 2026-05-06 09:33 | 52.10550 | 21.01126 | 3895 ft | 193 kts | 171° |
| 2026-05-06 09:34 | 52.09165 | 21.01489 | 4396 ft | 207 kts | 174° |
| 2026-05-06 09:34 | 52.07736 | 21.01893 | 5159 ft | 211 kts | 171° |
| 2026-05-06 09:34 | 52.06297 | 21.02395 | 5983 ft | 213 kts | 171° |
| 2026-05-06 09:34 | 52.04840 | 21.02910 | 6672 ft | 215 kts | 172° |
| 2026-05-06 09:35 | 52.03365 | 21.03432 | 7332 ft | 218 kts | 171° |
| 2026-05-06 09:35 | 52.01911 | 21.04305 | 7890 ft | 231 kts | 160° |
| 2026-05-06 09:35 | 52.00409 | 21.05511 | 8211 ft | 251 kts | 158° |
| 2026-05-06 09:35 | 51.98834 | 21.06954 | 8638 ft | 269 kts | 152° |
| 2026-05-06 09:36 | 51.97241 | 21.08667 | 9186 ft | 278 kts | 151° |
| 2026-05-06 09:36 | 51.95639 | 21.10389 | 9857 ft | 282 kts | 151° |
| 2026-05-06 09:36 | 51.94002 | 21.12169 | 10544 ft | 284 kts | 151° |
| 2026-05-06 09:36 | 51.92328 | 21.13977 | 11025 ft | 296 kts | 151° |
| 2026-05-06 09:37 | 51.90568 | 21.15881 | 11418 ft | 310 kts | 150° |
| 2026-05-06 09:37 | 51.88766 | 21.17846 | 12061 ft | 314 kts | 150° |
| 2026-05-06 09:37 | 51.86943 | 21.19819 | 12759 ft | 317 kts | 150° |
| 2026-05-06 09:37 | 51.85097 | 21.21812 | 13425 ft | 320 kts | 150° |
| 2026-05-06 09:38 | 51.83241 | 21.23820 | 14035 ft | 323 kts | 151° |
| 2026-05-06 09:38 | 51.81361 | 21.25844 | 14631 ft | 326 kts | 150° |
| 2026-05-06 09:38 | 51.79461 | 21.27890 | 15224 ft | 330 kts | 151° |
| 2026-05-06 09:38 | 51.77539 | 21.29957 | 15808 ft | 333 kts | 151° |
| 2026-05-06 09:39 | 51.75591 | 21.32053 | 16394 ft | 337 kts | 151° |
| 2026-05-06 09:39 | 51.73634 | 21.34155 | 16632 ft | 339 kts | 151° |
| 2026-05-06 09:39 | 51.71671 | 21.36258 | 16714 ft | 339 kts | 151° |
| 2026-05-06 09:39 | 51.69692 | 21.38376 | 16753 ft | 347 kts | 151° |
| 2026-05-06 09:40 | 51.67731 | 21.40776 | 16758 ft | 357 kts | 141° |
| 2026-05-06 09:40 | 51.65987 | 21.43656 | 16759 ft | 360 kts | 137° |
| 2026-05-06 09:40 | 51.62551 | 21.49387 | 16748 ft | 353 kts | 151° |
| 2026-05-06 09:41 | 51.60381 | 21.51262 | 16769 ft | 349 kts | 158° |
| 2026-05-06 09:41 | 51.58181 | 21.52910 | 16764 ft | 349 kts | 160° |
| 2026-05-06 09:41 | 51.55965 | 21.54514 | 16758 ft | 348 kts | 160° |
| 2026-05-06 09:41 | 51.53768 | 21.56149 | 16763 ft | 349 kts | 156° |
| 2026-05-06 09:42 | 51.51629 | 21.58055 | 16768 ft | 350 kts | 155° |
| 2026-05-06 09:42 | 51.49498 | 21.59943 | 16759 ft | 350 kts | 155° |
| 2026-05-06 09:42 | 51.48096 | 21.61219 | 16765 ft | 350 kts | 155° |
| 2026-05-06 09:42 | 51.45972 | 21.63142 | 16769 ft | 350 kts | 155° |
| 2026-05-06 09:43 | 51.43859 | 21.65066 | 16759 ft | 351 kts | 153° |
| 2026-05-06 09:43 | 51.41292 | 21.68290 | 16644 ft | 359 kts | 138° |
| 2026-05-06 09:43 | 51.40167 | 21.70296 | 16470 ft | 358 kts | 135° |
| 2026-05-06 09:43 | 51.38095 | 21.74291 | 16129 ft | 344 kts | 134° |
| 2026-05-06 09:44 | 51.37046 | 21.76231 | 15889 ft | 341 kts | 138° |
| 2026-05-06 09:44 | 51.35396 | 21.78956 | 15386 ft | 339 kts | 139° |
| 2026-05-06 09:44 | 51.33769 | 21.81653 | 14905 ft | 336 kts | 139° |
| 2026-05-06 09:44 | 51.32137 | 21.84320 | 14417 ft | 333 kts | 139° |
| 2026-05-06 09:45 | 51.30539 | 21.86924 | 13961 ft | 331 kts | 139° |
| 2026-05-06 09:45 | 51.28927 | 21.89552 | 13493 ft | 330 kts | 139° |
| 2026-05-06 09:45 | 51.27327 | 21.92159 | 12959 ft | 328 kts | 139° |
| 2026-05-06 09:45 | 51.25729 | 21.94758 | 12472 ft | 327 kts | 139° |
| 2026-05-06 09:46 | 51.24148 | 21.97330 | 11970 ft | 325 kts | 139° |
| 2026-05-06 09:46 | 51.22561 | 21.99907 | 11482 ft | 323 kts | 139° |
| 2026-05-06 09:46 | 51.20988 | 22.02459 | 11068 ft | 320 kts | 139° |
| 2026-05-06 09:46 | 51.19446 | 22.04960 | 10721 ft | 315 kts | 139° |
| 2026-05-06 09:47 | 51.18016 | 22.07587 | 10364 ft | 316 kts | 126° |
| 2026-05-06 09:47 | 51.17319 | 22.10902 | 10110 ft | 317 kts | 98° |
| 2026-05-06 09:47 | 51.17550 | 22.14357 | 9987 ft | 313 kts | 80° |
| 2026-05-06 09:47 | 51.18121 | 22.17691 | 9828 ft | 311 kts | 77° |
| 2026-05-06 09:48 | 51.18647 | 22.21037 | 9506 ft | 312 kts | 82° |
| 2026-05-06 09:48 | 51.19084 | 22.24442 | 9033 ft | 314 kts | 82° |
| 2026-05-06 09:48 | 51.19520 | 22.27837 | 8667 ft | 312 kts | 82° |
| 2026-05-06 09:48 | 51.19952 | 22.31192 | 8409 ft | 306 kts | 82° |
| 2026-05-06 09:49 | 51.20369 | 22.34483 | 8167 ft | 300 kts | 82° |
| 2026-05-06 09:49 | 51.20771 | 22.37717 | 7949 ft | 297 kts | 83° |
| 2026-05-06 09:49 | 51.20890 | 22.40908 | 7714 ft | 290 kts | 101° |
| 2026-05-06 09:49 | 51.20576 | 22.44068 | 7506 ft | 289 kts | 105° |
| 2026-05-06 09:50 | 51.20196 | 22.47212 | 7277 ft | 288 kts | 105° |
| 2026-05-06 09:50 | 51.20097 | 22.50416 | 7135 ft | 295 kts | 83° |
| 2026-05-06 09:50 | 51.20776 | 22.53517 | 7091 ft | 299 kts | 68° |
| 2026-05-06 09:50 | 51.21745 | 22.56465 | 7076 ft | 301 kts | 63° |
| 2026-05-06 09:51 | 51.22782 | 22.59373 | 7054 ft | 302 kts | 62° |
| 2026-05-06 09:51 | 51.23850 | 22.62278 | 6857 ft | 304 kts | 62° |
| 2026-05-06 09:51 | 51.24927 | 22.65169 | 6578 ft | 297 kts | 62° |
| 2026-05-06 09:51 | 51.25962 | 22.67936 | 6280 ft | 283 kts | 62° |
| 2026-05-06 09:52 | 51.26945 | 22.70589 | 5959 ft | 274 kts | 62° |
| 2026-05-06 09:52 | 51.27925 | 22.73209 | 5607 ft | 276 kts | 62° |
| 2026-05-06 09:52 | 51.28915 | 22.75848 | 5279 ft | 279 kts | 62° |
| 2026-05-06 09:52 | 51.29917 | 22.78487 | 5112 ft | 274 kts | 62° |
| 2026-05-06 09:53 | 51.30897 | 22.81061 | 5071 ft | 267 kts | 62° |
| 2026-05-06 09:53 | 51.31847 | 22.83553 | 5050 ft | 259 kts | 62° |
| 2026-05-06 09:53 | 51.32778 | 22.85971 | 5001 ft | 250 kts | 62° |
| 2026-05-06 09:53 | 51.33706 | 22.88397 | 5041 ft | 265 kts | 63° |
| 2026-05-06 09:54 | 51.34471 | 22.91058 | 4961 ft | 262 kts | 71° |
| 2026-05-06 09:54 | 51.35219 | 22.93617 | 4726 ft | 254 kts | 69° |
| 2026-05-06 09:54 | 51.36010 | 22.96153 | 4469 ft | 249 kts | 67° |
| 2026-05-06 09:54 | 51.36792 | 22.98613 | 4230 ft | 249 kts | 66° |
| 2026-05-06 09:55 | 51.37590 | 23.01073 | 4000 ft | 247 kts | 67° |
| 2026-05-06 09:55 | 51.38240 | 23.03591 | 3620 ft | 244 kts | 87° |
| 2026-05-06 09:55 | 51.38077 | 23.06197 | 3322 ft | 232 kts | 121° |
| 2026-05-06 09:55 | 51.37089 | 23.08034 | 3133 ft | 210 kts | 158° |
| 2026-05-06 09:56 | 51.35761 | 23.08389 | 3086 ft | 196 kts | 193° |
| 2026-05-06 09:56 | 51.34441 | 23.07904 | 3095 ft | 195 kts | 197° |
| 2026-05-06 09:56 | 51.33301 | 23.06815 | 3095 ft | 195 kts | 229° |
| 2026-05-06 09:56 | 51.32662 | 23.04815 | 3092 ft | 201 kts | 242° |
| 2026-05-06 09:57 | 51.32088 | 23.02816 | 3095 ft | 199 kts | 240° |
| 2026-05-06 09:57 | 51.31467 | 23.00805 | 3118 ft | 198 kts | 239° |
| 2026-05-06 09:57 | 51.30670 | 22.99054 | 3161 ft | 194 kts | 220° |
| 2026-05-06 09:57 | 51.29675 | 22.97609 | 3138 ft | 195 kts | 224° |
| 2026-05-06 09:58 | 51.28819 | 22.96028 | 3130 ft | 182 kts | 226° |
| 2026-05-06 09:58 | 51.27988 | 22.94596 | 3124 ft | 171 kts | 224° |
| 2026-05-06 09:58 | 51.27263 | 22.93156 | 3108 ft | 159 kts | 236° |
| 2026-05-06 09:58 | 51.26924 | 22.91535 | 2891 ft | 150 kts | 249° |
| 2026-05-06 09:59 | 51.26667 | 22.89961 | 2708 ft | 143 kts | 246° |
| 2026-05-06 09:59 | 51.26445 | 22.88432 | 2506 ft | 139 kts | 253° |
| 2026-05-06 09:59 | 51.26243 | 22.86978 | 2307 ft | 133 kts | 250° |
| 2026-05-06 09:59 | 51.26031 | 22.85549 | 2027 ft | 130 kts | 248° |
| 2026-05-06 10:00 | 51.25839 | 22.84175 | 1957 ft | 125 kts | 249° |
| 2026-05-06 10:00 | 51.25644 | 22.82830 | 1779 ft | 126 kts | 247° |
| 2026-05-06 10:00 | 51.25459 | 22.81469 | 1658 ft | 126 kts | 248° |
| 2026-05-06 10:00 | 51.25287 | 22.80078 | 1572 ft | 129 kts | 248° |
| 2026-05-06 10:01 | 51.25077 | 22.78658 | 1340 ft | 133 kts | 249° |
| 2026-05-06 10:01 | 51.24851 | 22.77251 | 1200 ft | 129 kts | 250° |
| 2026-05-06 10:01 | 51.24680 | 22.75855 | 1016 ft | 127 kts | 249° |
| 2026-05-06 10:01 | 51.24463 | 22.74485 | 848 ft | 125 kts | 252° |
| 2026-05-06 10:02 | 51.24279 | 22.73136 | 661 ft | 121 kts | 250° |
| 2026-05-06 10:02 | 51.24116 | 22.72022 | 638 ft | 79 kts | 257° |
| 2026-05-06 10:02 | 51.24039 | 22.71470 | 639 ft | 28 kts | 257° |
| 2026-05-06 10:02 | 51.23962 | 22.71377 | 639 ft | 13 kts | 168° |
| 2026-05-06 10:03 | 51.23872 | 22.71411 | 641 ft | 13 kts | 167° |
| 2026-05-06 10:03 | 51.23784 | 22.71441 | 637 ft | 13 kts | 168° |
| 2026-05-06 10:03 | 51.23737 | 22.71480 | 646 ft | 0 kts | 124° |
| 2026-05-06 10:03 | 51.23725 | 22.71495 | 637 ft | 2 kts | 150° |
| 2026-05-06 10:04 | 51.23711 | 22.71502 | 637 ft | 2 kts | 163° |
| 2026-05-06 10:04 | 51.23705 | 22.71504 | 639 ft | 0 kts | 166° |